createdAt,value
2018-10-17T00:00:12.185Z,16.89
2018-10-17T00:02:44.060Z,16.79
2018-10-17T00:05:14.738Z,16.71
2018-10-17T00:07:44.861Z,16.51
2018-10-17T00:10:16.815Z,16.40
2018-10-17T00:12:49.106Z,16.33
2018-10-17T00:15:19.098Z,16.27
2018-10-17T00:17:49.699Z,16.25
2018-10-17T00:20:20.065Z,16.32
2018-10-17T00:22:50.164Z,16.24
2018-10-17T00:25:20.381Z,16.24
2018-10-17T00:27:52.143Z,16.27
2018-10-17T00:30:22.240Z,16.28
2018-10-17T00:32:53.331Z,16.24
2018-10-17T00:35:23.332Z,16.29
2018-10-17T00:37:53.550Z,16.35
2018-10-17T00:40:25.684Z,16.21
2018-10-17T00:42:57.785Z,16.21
2018-10-17T00:48:19.113Z,16.13
2018-10-17T00:50:49.418Z,16.19
2018-10-17T00:53:20.103Z,16.23
2018-10-17T00:55:52.086Z,16.35
2018-10-17T00:58:24.326Z,16.28
2018-10-17T01:00:55.085Z,16.20
2018-10-17T01:03:25.174Z,16.19
2018-10-17T01:05:55.254Z,16.15
2018-10-17T01:08:25.675Z,16.19
2018-10-17T01:10:57.134Z,16.09
2018-10-17T01:13:28.273Z,16.02
2018-10-17T01:15:58.342Z,16.02
2018-10-17T01:18:28.745Z,16.06
2018-10-17T01:20:58.920Z,16.02
2018-10-17T01:23:28.792Z,16.07
2018-10-17T01:25:59.012Z,16.03
2018-10-17T01:28:29.175Z,16.11
2018-10-17T01:31:00.235Z,16.17
2018-10-17T01:33:31.829Z,16.22
2018-10-17T01:36:03.567Z,16.15
2018-10-17T01:38:34.258Z,16.21
2018-10-17T01:41:05.950Z,16.22
2018-10-17T01:43:36.706Z,16.20
2018-10-17T01:46:06.933Z,16.25
2018-10-17T01:48:37.890Z,16.26
2018-10-17T01:51:09.660Z,16.25
2018-10-17T01:53:40.400Z,16.16
2018-10-17T01:56:11.036Z,16.07
2018-10-17T01:58:41.596Z,16.14
2018-10-17T02:01:12.451Z,16.14
2018-10-17T02:03:43.614Z,16.06
2018-10-17T02:06:14.085Z,15.96
2018-10-17T02:08:45.140Z,15.89
2018-10-17T02:11:16.340Z,15.72
2018-10-17T02:13:47.660Z,15.84
2018-10-17T02:16:18.086Z,15.96
2018-10-17T02:18:48.563Z,15.99
2018-10-17T02:21:19.125Z,15.97
2018-10-17T02:23:49.100Z,16.02
2018-10-17T02:26:20.239Z,16.09
2018-10-17T02:28:50.939Z,16.04
2018-10-17T02:31:22.216Z,15.90
2018-10-17T02:33:52.174Z,15.86
2018-10-17T02:36:22.285Z,15.79
2018-10-17T02:38:52.175Z,15.83
2018-10-17T02:41:22.270Z,15.87
2018-10-17T02:43:52.301Z,15.83
2018-10-17T02:46:22.683Z,15.75
2018-10-17T02:49:01.059Z,15.74
2018-10-17T02:51:31.091Z,15.78
2018-10-17T02:54:01.316Z,15.85
2018-10-17T02:56:31.510Z,15.87
2018-10-17T02:59:01.707Z,15.86
2018-10-17T03:01:32.345Z,15.91
2018-10-17T03:04:04.921Z,15.93
2018-10-17T03:06:35.978Z,15.95
2018-10-17T03:09:08.443Z,15.93
2018-10-17T03:11:38.480Z,15.95
2018-10-17T03:14:08.782Z,16.00
2018-10-17T03:16:38.830Z,16.00
2018-10-17T03:19:09.088Z,16.02
2018-10-17T03:21:43.546Z,16.03
2018-10-17T03:24:13.665Z,16.01
2018-10-17T03:26:44.454Z,15.98
2018-10-17T03:29:14.523Z,15.81
2018-10-17T03:31:44.552Z,15.74
2018-10-17T03:34:17.107Z,15.67
2018-10-17T03:36:48.592Z,15.63
2018-10-17T03:39:21.627Z,15.70
2018-10-17T03:41:53.482Z,15.83
2018-10-17T03:44:23.773Z,15.85
2018-10-17T03:46:53.972Z,15.90
2018-10-17T03:49:25.643Z,15.98
2018-10-17T03:51:55.932Z,15.93
2018-10-17T03:54:31.901Z,15.96
2018-10-17T03:57:02.068Z,16.00
2018-10-17T03:59:32.147Z,15.94
2018-10-17T04:02:02.121Z,15.82
2018-10-17T04:04:34.586Z,15.72
2018-10-17T04:07:04.807Z,15.64
2018-10-17T04:09:35.241Z,15.66
2018-10-17T04:12:05.596Z,15.73
2018-10-17T04:14:37.333Z,15.86
2018-10-17T04:17:07.377Z,15.76
2018-10-17T04:19:38.964Z,15.70
2018-10-17T04:22:09.648Z,15.64
2018-10-17T04:24:39.833Z,15.64
2018-10-17T04:27:09.957Z,15.53
2018-10-17T04:29:40.391Z,15.52
2018-10-17T04:32:10.594Z,15.56
2018-10-17T04:34:42.101Z,15.60
2018-10-17T04:37:12.537Z,15.72
2018-10-17T04:39:42.898Z,15.77
2018-10-17T04:42:16.189Z,15.77
2018-10-17T04:44:46.552Z,15.87
2018-10-17T04:47:17.804Z,15.97
2018-10-17T04:49:48.330Z,15.96
2018-10-17T04:52:21.065Z,16.01
2018-10-17T04:54:51.975Z,16.03
2018-10-17T04:57:23.419Z,16.01
2018-10-17T04:59:53.913Z,16.03
2018-10-17T05:02:27.052Z,16.10
2018-10-17T05:04:57.375Z,15.98
2018-10-17T05:07:27.591Z,16.03
2018-10-17T05:09:58.290Z,16.04
2018-10-17T05:12:28.200Z,16.05
2018-10-17T05:14:58.467Z,16.10
2018-10-17T05:17:29.109Z,16.11
2018-10-17T05:19:59.676Z,16.00
2018-10-17T05:22:30.698Z,15.99
2018-10-17T05:25:01.709Z,15.95
2018-10-17T05:27:31.786Z,16.02
2018-10-17T05:30:02.445Z,16.07
2018-10-17T05:32:32.527Z,16.15
2018-10-17T05:35:02.895Z,16.13
2018-10-17T05:37:47.741Z,16.11
2018-10-17T05:40:20.162Z,16.11
2018-10-17T05:42:58.135Z,16.19
2018-10-17T05:45:28.812Z,15.99
2018-10-17T05:48:00.231Z,15.99
2018-10-17T05:50:32.872Z,16.05
2018-10-17T05:53:06.941Z,16.09
2018-10-17T05:55:37.332Z,15.97
2018-10-17T05:58:31.530Z,16.00
2018-10-17T06:01:02.835Z,16.03
2018-10-17T06:03:34.947Z,16.08
2018-10-17T06:06:14.329Z,16.11
2018-10-17T06:08:44.768Z,16.08
2018-10-17T06:11:15.475Z,16.07
2018-10-17T06:13:46.713Z,15.94
2018-10-17T06:16:18.702Z,15.97
2018-10-17T06:18:48.527Z,16.00
2018-10-17T06:21:19.348Z,16.08
2018-10-17T06:23:49.666Z,16.08
2018-10-17T06:26:20.804Z,16.19
2018-10-17T06:28:51.397Z,16.26
2018-10-17T06:31:21.616Z,16.30
2018-10-17T06:33:52.257Z,16.37
2018-10-17T06:36:25.392Z,16.43
2018-10-17T06:38:57.874Z,16.42
2018-10-17T06:41:28.609Z,16.36
2018-10-17T06:43:59.261Z,16.39
2018-10-17T06:46:29.652Z,16.38
2018-10-17T06:49:00.944Z,16.37
2018-10-17T06:51:37.307Z,16.34
2018-10-17T06:54:08.623Z,16.40
2018-10-17T06:56:40.158Z,16.47
2018-10-17T06:59:11.794Z,16.51
2018-10-17T07:01:46.803Z,16.56
2018-10-17T07:04:22.003Z,16.58
2018-10-17T07:06:54.048Z,16.58
2018-10-17T07:21:40.283Z,18.45
2018-10-17T07:24:11.413Z,18.20
2018-10-17T07:26:41.705Z,18.01
2018-10-17T07:29:14.228Z,18.06
2018-10-17T07:31:45.304Z,18.02
2018-10-17T07:34:15.656Z,17.96
2018-10-17T07:36:48.383Z,17.84
2018-10-17T07:39:23.469Z,17.85
2018-10-17T07:41:54.389Z,18.03
2018-10-17T07:44:28.825Z,18.26
2018-10-17T07:47:26.209Z,18.39
2018-10-17T07:49:58.001Z,18.24
2018-10-17T07:52:28.573Z,18.35
2018-10-17T07:54:59.801Z,18.48
2018-10-17T07:57:29.855Z,18.60
2018-10-17T08:00:01.208Z,18.61
2018-10-17T08:02:51.041Z,18.77
2018-10-17T08:05:26.789Z,19.14
2018-10-17T08:08:00.612Z,19.50
2018-10-17T08:10:31.859Z,19.64
2018-10-17T08:13:01.812Z,19.80
2018-10-17T08:15:31.910Z,19.84
2018-10-17T08:18:01.821Z,19.90
2018-10-17T08:20:31.816Z,19.77
2018-10-17T08:23:01.678Z,19.69
2018-10-17T08:25:31.656Z,19.51
2018-10-17T08:28:01.851Z,19.49
2018-10-17T08:30:31.915Z,19.31
2018-10-17T08:33:01.767Z,19.44
2018-10-17T08:35:34.186Z,19.48
2018-10-17T08:38:04.277Z,19.51
2018-10-17T08:40:34.205Z,19.51
2018-10-17T08:43:04.493Z,19.54
2018-10-17T08:45:34.579Z,19.63
2018-10-17T08:48:04.504Z,19.58
2018-10-17T08:50:34.707Z,19.55
2018-10-17T08:53:07.216Z,19.48
2018-10-17T08:55:38.264Z,19.43
2018-10-17T08:58:08.550Z,19.45
2018-10-17T09:00:43.010Z,19.42
2018-10-17T09:03:17.996Z,19.42
2018-10-17T09:05:55.617Z,19.33
2018-10-17T09:08:27.927Z,19.40
2018-10-17T09:11:00.208Z,19.45
2018-10-17T09:16:21.466Z,19.67
2018-10-17T09:18:56.951Z,19.64
2018-10-17T09:21:29.021Z,19.69
2018-10-17T09:24:04.212Z,19.85
2018-10-17T09:26:49.009Z,19.89
2018-10-17T09:29:20.537Z,20.06
2018-10-17T09:32:01.617Z,20.12
2018-10-17T09:34:35.147Z,20.09
2018-10-17T09:37:11.052Z,20.00
2018-10-17T09:39:41.904Z,20.15
2018-10-17T09:42:12.038Z,20.37
2018-10-17T09:44:43.507Z,20.46
2018-10-17T09:49:52.465Z,20.23
2018-10-17T09:52:23.994Z,20.36
2018-10-17T09:54:54.455Z,20.32
2018-10-17T09:57:25.088Z,20.31
2018-10-17T09:59:56.146Z,20.34
2018-10-17T10:05:23.014Z,20.65
2018-10-17T10:07:54.932Z,20.76
2018-10-17T10:10:27.569Z,20.74
2018-10-17T10:12:59.083Z,20.89
2018-10-17T10:15:29.468Z,20.95
2018-10-17T10:17:59.971Z,20.98
2018-10-17T10:20:31.278Z,21.03
2018-10-17T10:23:02.688Z,20.99
2018-10-17T10:25:32.960Z,21.05
2018-10-17T10:28:03.179Z,21.04
2018-10-17T10:30:35.996Z,20.94
2018-10-17T10:33:07.064Z,20.95
2018-10-17T10:35:37.610Z,21.07
2018-10-17T10:38:08.616Z,21.10
2018-10-17T10:40:39.548Z,21.09
2018-10-17T10:43:09.688Z,21.14
2018-10-17T10:45:41.413Z,21.20
2018-10-17T10:48:35.355Z,21.33
2018-10-17T10:51:09.772Z,21.35
2018-10-17T10:53:41.318Z,21.36
2018-10-17T10:56:15.747Z,21.23
2018-10-17T10:58:49.471Z,21.25
2018-10-17T11:01:22.683Z,21.25
2018-10-17T11:03:54.126Z,21.35
2018-10-17T11:06:32.102Z,21.48
2018-10-17T11:09:16.258Z,21.59
2018-10-17T11:12:02.444Z,21.58
2018-10-17T11:14:46.140Z,21.62
2018-10-17T11:17:20.208Z,21.64
2018-10-17T11:19:51.428Z,21.72
2018-10-17T11:22:22.981Z,21.73
2018-10-17T11:24:54.583Z,21.70
2018-10-17T11:27:29.391Z,21.76
2018-10-17T11:30:08.074Z,21.77
2018-10-17T11:32:41.679Z,21.71
2018-10-17T11:35:12.891Z,21.70
2018-10-17T11:37:43.988Z,21.77
2018-10-17T11:40:15.485Z,21.82
2018-10-17T11:42:46.128Z,21.91
2018-10-17T11:45:16.446Z,21.78
2018-10-17T11:47:47.035Z,21.79
2018-10-17T11:50:17.130Z,21.82
2018-10-17T11:52:47.387Z,21.91
2018-10-17T11:55:21.397Z,21.99
2018-10-17T11:57:53.892Z,22.03
2018-10-17T12:00:25.090Z,22.04
2018-10-17T12:02:57.151Z,22.05
2018-10-17T12:05:29.188Z,21.93
2018-10-17T12:08:00.768Z,21.98
2018-10-17T12:10:33.436Z,22.05
2018-10-17T12:13:05.187Z,22.18
2018-10-17T12:18:43.804Z,22.28
2018-10-17T12:21:19.305Z,22.22
2018-10-17T12:23:50.952Z,22.26
2018-10-17T12:26:23.391Z,22.29
2018-10-17T12:28:54.301Z,22.36
2018-10-17T12:31:25.537Z,22.40
2018-10-17T12:33:58.174Z,22.53
2018-10-17T12:36:30.944Z,22.48
2018-10-17T12:39:02.515Z,22.48
2018-10-17T12:41:33.821Z,22.45
2018-10-17T12:44:09.734Z,22.42
2018-10-17T12:46:41.589Z,22.43
2018-10-17T12:49:11.703Z,22.48
2018-10-17T12:51:44.767Z,22.41
2018-10-17T12:54:16.067Z,22.34
2018-10-17T13:02:07.533Z,22.47
2018-10-17T13:04:40.881Z,22.41
2018-10-17T13:07:11.858Z,22.32
2018-10-17T13:09:43.756Z,22.29
2018-10-17T13:12:19.584Z,22.31
2018-10-17T13:14:52.973Z,22.45
2018-10-17T13:17:24.909Z,22.59
2018-10-17T13:19:57.199Z,22.52
2018-10-17T13:22:33.498Z,22.49
2018-10-17T13:27:47.150Z,22.50
2018-10-17T13:30:21.271Z,22.49
2018-10-17T13:32:59.391Z,22.49
2018-10-17T13:35:31.888Z,22.48
2018-10-17T13:40:39.224Z,22.39
2018-10-17T13:43:12.778Z,22.46
2018-10-17T13:45:55.234Z,22.57
2018-10-17T13:48:27.200Z,22.55
2018-10-17T13:51:01.913Z,22.44
2018-10-17T13:53:33.146Z,22.32
2018-10-17T13:56:24.175Z,22.33
2018-10-17T13:58:57.261Z,22.26
2018-10-17T14:01:39.946Z,22.21
2018-10-17T14:04:12.104Z,22.24
2018-10-17T14:06:45.849Z,22.36
2018-10-17T14:09:23.486Z,22.43
2018-10-17T14:12:04.423Z,22.44
2018-10-17T14:14:39.585Z,22.40
2018-10-17T14:17:09.760Z,22.40
2018-10-17T14:19:41.151Z,22.40
2018-10-17T14:22:11.991Z,22.39
2018-10-17T14:24:43.066Z,22.41
2018-10-17T14:27:14.285Z,22.41
2018-10-17T14:29:45.519Z,22.37
2018-10-17T14:32:16.119Z,22.45
2018-10-17T14:34:47.747Z,22.46
2018-10-17T14:37:22.191Z,22.39
2018-10-17T14:39:54.094Z,22.40
2018-10-17T14:42:24.363Z,22.26
2018-10-17T14:45:04.669Z,22.23
2018-10-17T14:47:41.454Z,22.25
2018-10-17T14:50:12.823Z,22.13
2018-10-17T14:52:46.859Z,22.21
2018-10-17T14:55:18.643Z,22.29
2018-10-17T14:57:52.866Z,22.30
2018-10-17T15:00:26.856Z,22.34
2018-10-17T15:03:00.613Z,22.32
2018-10-17T15:05:36.026Z,22.23
2018-10-17T15:08:07.350Z,22.00
2018-10-17T15:10:38.532Z,22.09
2018-10-17T15:13:09.493Z,21.97
2018-10-17T15:15:46.079Z,21.90
2018-10-17T15:18:17.622Z,21.83
2018-10-17T15:20:47.768Z,21.83
2018-10-17T15:23:17.916Z,21.83
2018-10-17T15:25:48.036Z,21.75
2018-10-17T15:28:18.283Z,21.70
2018-10-17T15:30:49.011Z,21.74
2018-10-17T15:33:19.213Z,21.71
2018-10-17T15:35:49.843Z,21.66
2018-10-17T15:38:20.272Z,21.58
2018-10-17T15:40:50.748Z,21.52
2018-10-17T15:43:23.672Z,21.51
2018-10-17T15:45:56.228Z,21.49
2018-10-17T15:48:26.532Z,21.53
2018-10-17T15:51:00.298Z,21.31
2018-10-17T15:53:31.365Z,21.17
2018-10-17T15:56:03.641Z,21.12
2018-10-17T15:58:34.551Z,21.05
2018-10-17T16:01:05.153Z,21.03
2018-10-17T16:03:39.068Z,21.03
2018-10-17T16:06:11.052Z,20.97
2018-10-17T16:08:43.025Z,20.94
2018-10-17T16:11:14.530Z,20.77
2018-10-17T16:13:45.996Z,20.75
2018-10-17T16:16:21.032Z,20.71
2018-10-17T16:18:52.813Z,20.73
2018-10-17T16:21:27.498Z,20.70
2018-10-17T16:23:59.469Z,20.62
2018-10-17T16:26:30.414Z,20.52
2018-10-17T16:29:00.716Z,20.48
2018-10-17T16:31:30.805Z,20.36
2018-10-17T16:34:02.232Z,20.26
2018-10-17T16:36:32.570Z,20.22
2018-10-17T16:39:02.872Z,20.23
2018-10-17T16:41:33.355Z,20.12
2018-10-17T16:46:40.520Z,19.95
2018-10-17T16:49:11.378Z,19.89
2018-10-17T16:51:41.649Z,19.84
2018-10-17T16:54:11.889Z,19.76
2018-10-17T16:56:42.182Z,19.70
2018-10-17T16:59:12.305Z,19.69
2018-10-17T17:01:51.501Z,19.58
2018-10-17T17:04:24.844Z,19.41
2018-10-17T17:06:57.359Z,19.41
2018-10-17T17:09:30.560Z,19.36
2018-10-17T17:12:01.435Z,19.32
2018-10-17T17:14:37.044Z,19.17
2018-10-17T17:17:10.292Z,19.20
2018-10-17T17:19:43.485Z,19.16
2018-10-17T17:22:14.658Z,19.15
2018-10-17T17:24:50.692Z,19.09
2018-10-17T17:27:21.940Z,18.91
2018-10-17T17:29:54.756Z,18.85
2018-10-17T17:32:29.011Z,18.76
2018-10-17T17:35:00.873Z,18.71
2018-10-17T17:37:32.970Z,18.69
2018-10-17T17:40:07.172Z,18.62
2018-10-17T17:42:38.787Z,18.53
2018-10-17T17:45:10.920Z,18.53
2018-10-17T17:47:48.962Z,18.43
2018-10-17T17:50:28.028Z,18.38
2018-10-17T17:53:00.614Z,18.36
2018-10-17T17:55:30.836Z,18.47
2018-10-17T17:58:01.984Z,18.33
2018-10-17T18:00:33.095Z,18.17
2018-10-17T18:03:04.583Z,18.09
2018-10-17T18:05:36.258Z,18.06
2018-10-17T18:08:06.250Z,18.00
2018-10-17T18:10:37.413Z,18.00
2018-10-17T18:13:08.193Z,17.98
2018-10-17T18:15:39.441Z,17.90
2018-10-17T18:18:09.342Z,17.87
2018-10-17T18:20:39.423Z,17.88
2018-10-17T18:23:09.302Z,17.81
2018-10-17T18:25:40.889Z,17.76
2018-10-17T18:28:10.930Z,17.82
2018-10-17T18:30:42.048Z,17.78
2018-10-17T18:33:13.730Z,17.75
2018-10-17T18:35:44.155Z,17.57
2018-10-17T18:38:15.322Z,17.46
2018-10-17T18:40:45.267Z,17.45
2018-10-17T18:43:15.727Z,17.40
2018-10-17T18:45:47.156Z,17.36
2018-10-17T18:48:18.080Z,17.33
2018-10-17T18:50:48.364Z,17.24
2018-10-17T18:53:18.274Z,17.18
2018-10-17T18:55:48.569Z,17.21
2018-10-17T18:58:19.109Z,17.17
2018-10-17T19:00:50.677Z,17.09
2018-10-17T19:03:21.668Z,17.12
2018-10-17T19:05:52.199Z,17.14
2018-10-17T19:08:23.142Z,17.01
2018-10-17T19:10:54.147Z,16.91
2018-10-17T19:13:24.149Z,16.86
2018-10-17T19:15:54.928Z,16.77
2018-10-17T19:18:33.225Z,16.76
2018-10-17T19:21:03.845Z,16.82
2018-10-17T19:23:33.796Z,16.72
2018-10-17T19:26:04.400Z,16.62
2018-10-17T19:28:34.595Z,16.71
2018-10-17T19:31:06.976Z,16.60
2018-10-17T19:33:38.645Z,16.52
2018-10-17T19:38:53.533Z,16.56
2018-10-17T19:41:24.458Z,16.60
2018-10-17T19:43:56.879Z,16.59
2018-10-17T19:46:27.815Z,16.57
2018-10-17T19:48:59.510Z,16.55
2018-10-17T19:51:31.576Z,16.56
2018-10-17T19:54:03.646Z,16.60
2018-10-17T19:56:34.068Z,16.58
2018-10-17T19:59:10.881Z,16.34
2018-10-17T20:07:38.050Z,16.10
2018-10-17T20:10:08.863Z,16.02
2018-10-17T20:12:41.098Z,15.95
2018-10-17T20:15:17.137Z,15.85
2018-10-17T20:17:48.694Z,15.85
2018-10-17T20:23:07.872Z,15.71
2018-10-17T20:25:44.675Z,15.74
2018-10-17T20:28:15.130Z,15.70
2018-10-17T20:30:49.765Z,15.66
2018-10-17T20:33:23.139Z,15.64
2018-10-17T20:35:52.904Z,15.55
2018-10-17T20:38:24.678Z,15.60
2018-10-17T20:43:53.808Z,15.52
2018-10-17T20:46:24.273Z,15.33
2018-10-17T20:49:08.049Z,15.42
2018-10-17T20:51:50.890Z,15.37
2018-10-17T20:54:22.107Z,15.40
2018-10-17T21:02:22.840Z,15.28
2018-10-17T21:04:53.141Z,15.27
2018-10-17T21:07:26.936Z,15.24
2018-10-17T21:09:59.816Z,15.17
2018-10-17T21:12:31.049Z,15.15
2018-10-17T21:15:01.552Z,15.27
2018-10-17T21:17:33.725Z,15.22
2018-10-17T21:20:10.214Z,15.25
2018-10-17T21:22:41.546Z,15.30
2018-10-17T21:25:12.149Z,15.39
2018-10-17T21:27:45.014Z,15.34
2018-10-17T21:30:14.918Z,15.32
2018-10-17T21:32:45.362Z,15.36
2018-10-17T21:35:15.929Z,15.29
2018-10-17T21:37:46.567Z,15.25
2018-10-17T21:40:20.860Z,15.22
2018-10-17T21:42:55.425Z,15.19
2018-10-17T21:45:25.588Z,15.26
2018-10-17T21:47:55.541Z,15.21
2018-10-17T21:50:26.301Z,15.14
2018-10-17T21:52:56.854Z,15.13
2018-10-17T21:55:27.130Z,15.16
2018-10-17T21:57:57.729Z,15.28
2018-10-17T22:00:30.422Z,15.45
2018-10-17T22:03:01.120Z,15.38
2018-10-17T22:05:32.134Z,15.41
2018-10-17T22:08:02.805Z,15.43
2018-10-17T22:10:33.425Z,15.43
2018-10-17T22:13:03.338Z,15.33
2018-10-17T22:15:34.072Z,15.40
2018-10-17T22:18:06.223Z,15.46
2018-10-17T22:20:36.275Z,15.35
2018-10-17T22:23:07.259Z,15.37
2018-10-17T22:25:37.829Z,15.28
2018-10-17T22:28:07.783Z,15.24
2018-10-17T22:30:39.924Z,15.25
2018-10-17T22:33:10.017Z,15.22
2018-10-17T22:35:42.011Z,15.16
2018-10-17T22:38:12.421Z,15.11
2018-10-17T22:40:42.560Z,15.16
2018-10-17T22:43:15.465Z,15.09
2018-10-17T22:45:46.864Z,15.12
2018-10-17T22:49:42.383Z,14.95
2018-10-17T22:52:13.241Z,15.09
2018-10-17T22:54:45.580Z,15.04
2018-10-17T22:59:54.804Z,15.04
2018-10-17T23:02:25.572Z,15.18
2018-10-17T23:04:56.657Z,15.10
2018-10-17T23:07:27.569Z,15.02
2018-10-17T23:09:58.403Z,15.09
2018-10-17T23:12:28.627Z,15.10
2018-10-17T23:14:59.639Z,15.04
2018-10-17T23:17:30.289Z,15.04
2018-10-17T23:20:00.720Z,14.89
2018-10-17T23:22:31.422Z,14.92
2018-10-17T23:25:03.800Z,14.91
2018-10-17T23:27:33.878Z,15.06
2018-10-17T23:30:04.551Z,14.93
2018-10-17T23:32:36.164Z,15.00
2018-10-17T23:35:07.035Z,15.06
2018-10-17T23:37:37.208Z,14.94
2018-10-17T23:40:08.752Z,14.86
2018-10-17T23:42:39.349Z,14.77
2018-10-17T23:45:09.500Z,14.68
2018-10-17T23:47:39.737Z,14.65
2018-10-17T23:50:12.110Z,14.57
2018-10-17T23:52:44.854Z,14.60
2018-10-17T23:55:14.952Z,14.65
2018-10-17T23:57:44.802Z,14.59
